sensor_id;sensor_type;location;lat;lon;timestamp;pressure;altitude;pressure_sealevel;temperature;humidity
66524;BME280;53350;52.210;5.160;2022-10-16T00:00:41;100921.47;;;14.98;71.38
66524;BME280;53350;52.210;5.160;2022-10-16T00:03:08;100918.72;;;15.02;71.06
66524;BME280;53350;52.210;5.160;2022-10-16T00:05:39;100923.91;;;15.02;70.86
66524;BME280;53350;52.210;5.160;2022-10-16T00:08:06;100925.63;;;15.02;71.23
66524;BME280;53350;52.210;5.160;2022-10-16T00:10:33;100925.78;;;14.97;71.14
66524;BME280;53350;52.210;5.160;2022-10-16T00:12:59;100928.16;;;15.05;70.69
66524;BME280;53350;52.210;5.160;2022-10-16T00:15:26;100924.72;;;15.04;70.50
66524;BME280;53350;52.210;5.160;2022-10-16T00:17:53;100924.84;;;15.00;70.63
66524;BME280;53350;52.210;5.160;2022-10-16T00:20:20;100923.91;;;15.02;70.20
66524;BME280;53350;52.210;5.160;2022-10-16T00:22:46;100922.03;;;15.07;70.25
66524;BME280;53350;52.210;5.160;2022-10-16T00:25:13;100918.63;;;15.05;69.90
66524;BME280;53350;52.210;5.160;2022-10-16T00:27:39;100915.25;;;15.02;70.25
66524;BME280;53350;52.210;5.160;2022-10-16T00:30:07;100911.78;;;15.03;70.17
66524;BME280;53350;52.210;5.160;2022-10-16T00:32:34;100908.22;;;15.07;69.98
66524;BME280;53350;52.210;5.160;2022-10-16T00:35:02;100916.00;;;15.07;70.07
66524;BME280;53350;52.210;5.160;2022-10-16T00:37:28;100911.72;;;15.04;70.18
66524;BME280;53350;52.210;5.160;2022-10-16T00:39:55;100916.00;;;15.07;69.73
66524;BME280;53350;52.210;5.160;2022-10-16T00:42:22;100913.34;;;15.08;69.91
66524;BME280;53350;52.210;5.160;2022-10-16T00:44:49;100905.63;;;15.07;70.04
66524;BME280;53350;52.210;5.160;2022-10-16T00:47:21;100903.84;;;15.07;69.75
66524;BME280;53350;52.210;5.160;2022-10-16T00:49:50;100901.41;;;15.03;69.72
66524;BME280;53350;52.210;5.160;2022-10-16T00:52:19;100931.31;;;15.15;69.68
66524;BME280;53350;52.210;5.160;2022-10-16T00:54:46;100916.72;;;15.12;69.83
66524;BME280;53350;52.210;5.160;2022-10-16T00:57:15;100909.56;;;15.19;69.72
66524;BME280;53350;52.210;5.160;2022-10-16T00:59:42;100917.25;;;15.22;69.75
66524;BME280;53350;52.210;5.160;2022-10-16T01:02:12;100921.53;;;15.24;69.65
66524;BME280;53350;52.210;5.160;2022-10-16T01:04:41;100929.22;;;15.27;69.75
66524;BME280;53350;52.210;5.160;2022-10-16T01:07:12;100914.66;;;15.22;70.12
66524;BME280;53350;52.210;5.160;2022-10-16T01:09:51;100909.19;;;15.03;70.93
66524;BME280;53350;52.210;5.160;2022-10-16T01:12:26;100908.94;;;15.10;70.52
66524;BME280;53350;52.210;5.160;2022-10-16T01:14:59;100909.78;;;15.12;70.66
66524;BME280;53350;52.210;5.160;2022-10-16T01:17:31;100910.41;;;15.19;70.72
66524;BME280;53350;52.210;5.160;2022-10-16T01:20:08;100903.75;;;15.10;71.43
66524;BME280;53350;52.210;5.160;2022-10-16T01:22:50;100902.88;;;15.11;71.12
66524;BME280;53350;52.210;5.160;2022-10-16T01:25:35;100904.38;;;15.19;71.06
66524;BME280;53350;52.210;5.160;2022-10-16T01:28:06;100906.03;;;15.21;70.93
66524;BME280;53350;52.210;5.160;2022-10-16T01:30:36;100907.91;;;15.16;71.34
66524;BME280;53350;52.210;5.160;2022-10-16T01:33:09;100902.72;;;15.16;71.44
66524;BME280;53350;52.210;5.160;2022-10-16T01:35:38;100900.13;;;15.16;71.36
66524;BME280;53350;52.210;5.160;2022-10-16T01:38:10;100895.19;;;15.08;71.86
66524;BME280;53350;52.210;5.160;2022-10-16T01:40:42;100904.53;;;15.14;71.73
66524;BME280;53350;52.210;5.160;2022-10-16T01:43:15;100906.97;;;15.19;71.50
66524;BME280;53350;52.210;5.160;2022-10-16T01:45:44;100893.84;;;15.23;71.75
66524;BME280;53350;52.210;5.160;2022-10-16T01:48:14;100899.88;;;15.25;71.61
66524;BME280;53350;52.210;5.160;2022-10-16T01:50:44;100896.13;;;15.34;71.67
66524;BME280;53350;52.210;5.160;2022-10-16T01:53:15;100900.47;;;15.34;71.91
66524;BME280;53350;52.210;5.160;2022-10-16T01:55:45;100923.69;;;15.38;71.92
66524;BME280;53350;52.210;5.160;2022-10-16T01:58:15;100918.41;;;15.41;72.05
66524;BME280;53350;52.210;5.160;2022-10-16T02:00:44;100921.84;;;15.42;72.04
66524;BME280;53350;52.210;5.160;2022-10-16T02:03:12;100914.06;;;15.42;72.11
66524;BME280;53350;52.210;5.160;2022-10-16T02:05:42;100912.34;;;15.41;72.55
66524;BME280;53350;52.210;5.160;2022-10-16T02:08:10;100921.09;;;15.38;72.60
66524;BME280;53350;52.210;5.160;2022-10-16T02:10:37;100922.88;;;15.36;72.74
66524;BME280;53350;52.210;5.160;2022-10-16T02:13:06;100929.88;;;15.34;72.83
66524;BME280;53350;52.210;5.160;2022-10-16T02:15:36;100922.97;;;15.33;72.78
66524;BME280;53350;52.210;5.160;2022-10-16T02:18:03;100933.38;;;15.33;72.71
66524;BME280;53350;52.210;5.160;2022-10-16T02:23:22;100937.03;;;15.26;72.76
66524;BME280;53350;52.210;5.160;2022-10-16T02:25:52;100941.44;;;15.24;72.91
66524;BME280;53350;52.210;5.160;2022-10-16T02:28:24;100942.47;;;15.18;72.89
66524;BME280;53350;52.210;5.160;2022-10-16T02:30:57;100925.56;;;15.05;72.92
66524;BME280;53350;52.210;5.160;2022-10-16T02:33:25;100950.34;;;15.15;73.06
66524;BME280;53350;52.210;5.160;2022-10-16T02:35:53;100954.75;;;15.11;72.95
66524;BME280;53350;52.210;5.160;2022-10-16T02:38:21;100954.03;;;15.08;73.10
66524;BME280;53350;52.210;5.160;2022-10-16T02:40:47;100961.25;;;14.97;73.36
66524;BME280;53350;52.210;5.160;2022-10-16T02:43:15;100955.28;;;14.93;73.68
66524;BME280;53350;52.210;5.160;2022-10-16T02:45:42;100960.47;;;14.93;73.83
66524;BME280;53350;52.210;5.160;2022-10-16T02:48:09;100960.47;;;14.93;73.80
66524;BME280;53350;52.210;5.160;2022-10-16T02:50:36;100959.69;;;14.91;73.97
66524;BME280;53350;52.210;5.160;2022-10-16T02:53:02;100959.63;;;14.92;74.03
66524;BME280;53350;52.210;5.160;2022-10-16T02:55:29;100960.53;;;14.91;74.21
66524;BME280;53350;52.210;5.160;2022-10-16T02:57:55;100957.03;;;14.92;74.27
66524;BME280;53350;52.210;5.160;2022-10-16T03:00:22;100952.75;;;14.91;74.30
66524;BME280;53350;52.210;5.160;2022-10-16T03:02:48;100957.97;;;14.90;74.48
66524;BME280;53350;52.210;5.160;2022-10-16T03:05:16;100960.72;;;14.85;74.54
66524;BME280;53350;52.210;5.160;2022-10-16T03:07:42;100955.44;;;14.88;74.79
66524;BME280;53350;52.210;5.160;2022-10-16T03:10:09;100948.53;;;14.87;74.54
66524;BME280;53350;52.210;5.160;2022-10-16T03:12:35;100951.94;;;14.89;74.46
66524;BME280;53350;52.210;5.160;2022-10-16T03:15:03;100941.63;;;14.88;74.61
66524;BME280;53350;52.210;5.160;2022-10-16T03:17:29;100945.00;;;14.90;74.43
66524;BME280;53350;52.210;5.160;2022-10-16T03:19:55;100943.34;;;14.89;74.63
66524;BME280;53350;52.210;5.160;2022-10-16T03:22:23;100953.03;;;14.82;74.73
66524;BME280;53350;52.210;5.160;2022-10-16T03:24:50;100946.94;;;14.83;74.74
66524;BME280;53350;52.210;5.160;2022-10-16T03:27:16;100953.81;;;14.84;74.67
66524;BME280;53350;52.210;5.160;2022-10-16T03:29:43;100959.19;;;14.78;74.71
66524;BME280;53350;52.210;5.160;2022-10-16T03:32:09;100961.72;;;14.80;74.84
66524;BME280;53350;52.210;5.160;2022-10-16T03:34:36;100969.47;;;14.81;74.77
66524;BME280;53350;52.210;5.160;2022-10-16T03:37:02;100976.34;;;14.82;74.93
66524;BME280;53350;52.210;5.160;2022-10-16T03:39:30;100980.81;;;14.77;75.08
66524;BME280;53350;52.210;5.160;2022-10-16T03:41:56;100981.72;;;14.76;75.13
66524;BME280;53350;52.210;5.160;2022-10-16T03:44:23;100984.28;;;14.77;75.13
66524;BME280;53350;52.210;5.160;2022-10-16T03:46:49;100987.69;;;14.78;75.13
66524;BME280;53350;52.210;5.160;2022-10-16T03:49:16;100978.09;;;14.82;75.00
66524;BME280;53350;52.210;5.160;2022-10-16T03:51:42;100987.56;;;14.83;75.03
66524;BME280;53350;52.210;5.160;2022-10-16T03:54:09;100977.25;;;14.81;75.02
66524;BME280;53350;52.210;5.160;2022-10-16T03:56:37;100982.50;;;14.78;75.34
66524;BME280;53350;52.210;5.160;2022-10-16T03:59:04;100988.53;;;14.78;75.70
66524;BME280;53350;52.210;5.160;2022-10-16T04:01:31;100991.22;;;14.75;75.68
66524;BME280;53350;52.210;5.160;2022-10-16T04:03:57;100992.28;;;14.68;75.79
66524;BME280;53350;52.210;5.160;2022-10-16T04:06:23;101001.72;;;14.71;76.00
66524;BME280;53350;52.210;5.160;2022-10-16T04:08:50;100998.38;;;14.67;75.80
66524;BME280;53350;52.210;5.160;2022-10-16T04:11:16;100992.19;;;14.71;75.85
66524;BME280;53350;52.210;5.160;2022-10-16T04:13:44;100998.16;;;14.75;75.86
66524;BME280;53350;52.210;5.160;2022-10-16T04:16:10;100994.69;;;14.76;75.80
66524;BME280;53350;52.210;5.160;2022-10-16T04:18:37;100999.78;;;14.79;75.62
66524;BME280;53350;52.210;5.160;2022-10-16T04:21:03;101001.47;;;14.80;75.82
66524;BME280;53350;52.210;5.160;2022-10-16T04:23:30;101004.09;;;14.78;75.97
66524;BME280;53350;52.210;5.160;2022-10-16T04:25:56;101016.31;;;14.75;76.03
66524;BME280;53350;52.210;5.160;2022-10-16T04:28:23;101020.56;;;14.77;75.95
66524;BME280;53350;52.210;5.160;2022-10-16T04:30:51;101033.53;;;14.77;75.98
66524;BME280;53350;52.210;5.160;2022-10-16T04:33:17;101034.47;;;14.75;75.94
66524;BME280;53350;52.210;5.160;2022-10-16T04:35:44;101037.06;;;14.75;75.80
66524;BME280;53350;52.210;5.160;2022-10-16T04:38:10;101043.09;;;14.75;76.18
66524;BME280;53350;52.210;5.160;2022-10-16T04:40:37;101040.53;;;14.74;76.11
66524;BME280;53350;52.210;5.160;2022-10-16T04:43:04;101050.91;;;14.74;76.18
66524;BME280;53350;52.210;5.160;2022-10-16T04:45:31;101051.78;;;14.74;76.19
66524;BME280;53350;52.210;5.160;2022-10-16T04:47:59;101049.19;;;14.73;76.05
66524;BME280;53350;52.210;5.160;2022-10-16T04:50:25;101051.78;;;14.74;76.03
66524;BME280;53350;52.210;5.160;2022-10-16T04:52:52;101056.09;;;14.74;76.03
66524;BME280;53350;52.210;5.160;2022-10-16T04:55:18;101046.59;;;14.73;76.07
66524;BME280;53350;52.210;5.160;2022-10-16T04:57:45;101057.94;;;14.70;76.20
66524;BME280;53350;52.210;5.160;2022-10-16T05:00:12;101061.44;;;14.68;76.21
66524;BME280;53350;52.210;5.160;2022-10-16T05:02:39;101063.13;;;14.70;76.39
66524;BME280;53350;52.210;5.160;2022-10-16T05:05:07;101075.22;;;14.70;76.26
66524;BME280;53350;52.210;5.160;2022-10-16T05:07:33;101078.63;;;14.72;76.29
66524;BME280;53350;52.210;5.160;2022-10-16T05:10:00;101077.72;;;14.73;76.30
66524;BME280;53350;52.210;5.160;2022-10-16T05:12:26;101089.00;;;14.72;76.20
66524;BME280;53350;52.210;5.160;2022-10-16T05:14:52;101095.06;;;14.71;76.16
66524;BME280;53350;52.210;5.160;2022-10-16T05:17:28;101094.34;;;14.66;76.60
66524;BME280;53350;52.210;5.160;2022-10-16T05:19:55;101095.16;;;14.68;76.50
66524;BME280;53350;52.210;5.160;2022-10-16T05:22:28;101098.66;;;14.65;76.95
66524;BME280;53350;52.210;5.160;2022-10-16T05:24:54;101102.88;;;14.69;76.61
66524;BME280;53350;52.210;5.160;2022-10-16T05:27:24;101108.03;;;14.71;76.73
66524;BME280;53350;52.210;5.160;2022-10-16T05:29:51;101108.88;;;14.71;76.73
66524;BME280;53350;52.210;5.160;2022-10-16T05:32:21;101109.66;;;14.75;76.70
66524;BME280;53350;52.210;5.160;2022-10-16T05:34:51;101120.88;;;14.75;76.71
66524;BME280;53350;52.210;5.160;2022-10-16T05:37:48;101119.19;;;14.74;76.64
66524;BME280;53350;52.210;5.160;2022-10-16T05:40:19;101126.09;;;14.74;76.65
66524;BME280;53350;52.210;5.160;2022-10-16T05:42:48;101127.72;;;14.78;76.77
66524;BME280;53350;52.210;5.160;2022-10-16T05:45:20;101139.84;;;14.77;76.60
66524;BME280;53350;52.210;5.160;2022-10-16T05:47:47;101151.06;;;14.78;76.55
66524;BME280;53350;52.210;5.160;2022-10-16T05:50:19;101141.63;;;14.75;76.91
66524;BME280;53350;52.210;5.160;2022-10-16T05:52:52;101151.22;;;14.72;77.27
66524;BME280;53350;52.210;5.160;2022-10-16T05:55:18;101158.09;;;14.74;77.25
66524;BME280;53350;52.210;5.160;2022-10-16T05:57:59;101164.19;;;14.72;77.55
66524;BME280;53350;52.210;5.160;2022-10-16T06:00:29;101157.31;;;14.71;77.65
66524;BME280;53350;52.210;5.160;2022-10-16T06:03:19;101170.25;;;14.71;77.86
66524;BME280;53350;52.210;5.160;2022-10-16T06:05:46;101169.47;;;14.69;77.91
66524;BME280;53350;52.210;5.160;2022-10-16T06:08:21;101176.41;;;14.67;77.90
66524;BME280;53350;52.210;5.160;2022-10-16T06:11:10;101176.41;;;14.67;78.46
66524;BME280;53350;52.210;5.160;2022-10-16T06:13:55;101180.72;;;14.68;78.56
66524;BME280;53350;52.210;5.160;2022-10-16T06:16:28;101173.84;;;14.65;78.61
66524;BME280;53350;52.210;5.160;2022-10-16T06:19:01;101178.03;;;14.71;78.61
66524;BME280;53350;52.210;5.160;2022-10-16T06:21:34;101164.28;;;14.69;78.10
66524;BME280;53350;52.210;5.160;2022-10-16T06:24:17;101173.06;;;14.63;77.87
66524;BME280;53350;52.210;5.160;2022-10-16T06:26:49;101166.25;;;14.57;78.35
66524;BME280;53350;52.210;5.160;2022-10-16T06:29:19;101164.53;;;14.56;78.52
66524;BME280;53350;52.210;5.160;2022-10-16T06:31:45;101177.47;;;14.56;79.13
66524;BME280;53350;52.210;5.160;2022-10-16T06:34:24;101178.50;;;14.49;79.33
66524;BME280;53350;52.210;5.160;2022-10-16T06:36:53;101183.63;;;14.52;78.91
66524;BME280;53350;52.210;5.160;2022-10-16T06:39:22;101187.00;;;14.56;79.48
66524;BME280;53350;52.210;5.160;2022-10-16T06:41:52;101189.69;;;14.53;79.23
66524;BME280;53350;52.210;5.160;2022-10-16T06:44:18;101193.16;;;14.52;79.48
66524;BME280;53350;52.210;5.160;2022-10-16T06:46:51;101198.53;;;14.44;80.13
66524;BME280;53350;52.210;5.160;2022-10-16T06:49:21;101184.69;;;14.43;80.13
66524;BME280;53350;52.210;5.160;2022-10-16T06:52:08;101193.38;;;14.41;80.16
66524;BME280;53350;52.210;5.160;2022-10-16T06:54:41;101197.72;;;14.40;80.26
66524;BME280;53350;52.210;5.160;2022-10-16T06:57:09;101191.72;;;14.38;80.42
66524;BME280;53350;52.210;5.160;2022-10-16T06:59:41;101201.16;;;14.41;80.53
66524;BME280;53350;52.210;5.160;2022-10-16T07:02:10;101211.47;;;14.44;80.15
66524;BME280;53350;52.210;5.160;2022-10-16T07:04:39;101215.72;;;14.47;80.15
66524;BME280;53350;52.210;5.160;2022-10-16T07:07:25;101221.75;;;14.49;80.24
66524;BME280;53350;52.210;5.160;2022-10-16T07:10:11;101228.63;;;14.48;80.38
66524;BME280;53350;52.210;5.160;2022-10-16T07:12:39;101240.63;;;14.54;80.24
66524;BME280;53350;52.210;5.160;2022-10-16T07:15:08;101237.09;;;14.56;80.07
66524;BME280;53350;52.210;5.160;2022-10-16T07:17:39;101239.63;;;14.59;80.11
66524;BME280;53350;52.210;5.160;2022-10-16T07:20:23;101249.13;;;14.62;80.09
66524;BME280;53350;52.210;5.160;2022-10-16T07:22:52;101255.09;;;14.66;80.04
66524;BME280;53350;52.210;5.160;2022-10-16T07:25:25;101253.28;;;14.69;79.86
66524;BME280;53350;52.210;5.160;2022-10-16T07:27:56;101265.28;;;14.73;79.57
66524;BME280;53350;52.210;5.160;2022-10-16T07:30:48;101272.97;;;14.78;79.17
66524;BME280;53350;52.210;5.160;2022-10-16T07:33:20;101274.66;;;14.79;78.79
66524;BME280;53350;52.210;5.160;2022-10-16T07:36:04;101278.03;;;14.83;78.99
66524;BME280;53350;52.210;5.160;2022-10-16T07:38:46;101280.50;;;14.87;79.10
66524;BME280;53350;52.210;5.160;2022-10-16T07:41:59;101289.25;;;14.85;78.83
66524;BME280;53350;52.210;5.160;2022-10-16T07:44:31;101303.75;;;14.93;78.61
66524;BME280;53350;52.210;5.160;2022-10-16T07:47:01;101311.47;;;14.95;78.45
66524;BME280;53350;52.210;5.160;2022-10-16T07:49:29;101322.50;;;15.05;78.32
66524;BME280;53350;52.210;5.160;2022-10-16T07:51:56;101317.94;;;15.15;78.36
66524;BME280;53350;52.210;5.160;2022-10-16T07:54:30;101316.81;;;15.25;78.60
66524;BME280;53350;52.210;5.160;2022-10-16T07:57:03;101317.41;;;15.36;78.55
66524;BME280;53350;52.210;5.160;2022-10-16T07:59:33;101319.81;;;15.45;78.06
66524;BME280;53350;52.210;5.160;2022-10-16T08:02:02;101323.03;;;15.54;77.55
66524;BME280;53350;52.210;5.160;2022-10-16T08:04:36;101324.88;;;15.50;77.65
66524;BME280;53350;52.210;5.160;2022-10-16T08:07:06;101322.03;;;15.59;77.11
66524;BME280;53350;52.210;5.160;2022-10-16T08:09:38;101327.16;;;15.62;77.38
66524;BME280;53350;52.210;5.160;2022-10-16T08:12:07;101321.19;;;15.59;77.30
66524;BME280;53350;52.210;5.160;2022-10-16T08:14:39;101342.44;;;15.75;77.27
66524;BME280;53350;52.210;5.160;2022-10-16T08:17:07;101344.94;;;15.79;77.19
66524;BME280;53350;52.210;5.160;2022-10-16T08:19:33;101350.00;;;15.84;77.32
66524;BME280;53350;52.210;5.160;2022-10-16T08:22:01;101355.06;;;15.90;77.21
66524;BME280;53350;52.210;5.160;2022-10-16T08:24:27;101354.81;;;15.99;76.95
66524;BME280;53350;52.210;5.160;2022-10-16T08:27:01;101352.84;;;16.08;76.87
66524;BME280;53350;52.210;5.160;2022-10-16T08:29:43;101359.59;;;16.15;77.12
66524;BME280;53350;52.210;5.160;2022-10-16T08:32:10;101361.38;;;16.13;76.36
66524;BME280;53350;52.210;5.160;2022-10-16T08:34:45;101354.31;;;16.18;76.56
66524;BME280;53350;52.210;5.160;2022-10-16T08:37:14;101361.19;;;16.21;76.09
66524;BME280;53350;52.210;5.160;2022-10-16T08:40:13;101368.72;;;16.30;76.24
66524;BME280;53350;52.210;5.160;2022-10-16T08:43:00;101369.41;;;16.35;75.94
66524;BME280;53350;52.210;5.160;2022-10-16T08:46:09;101372.47;;;16.49;74.95
66524;BME280;53350;52.210;5.160;2022-10-16T08:49:02;101376.84;;;16.49;75.60
66524;BME280;53350;52.210;5.160;2022-10-16T08:51:31;101387.84;;;16.59;74.63
66524;BME280;53350;52.210;5.160;2022-10-16T08:54:26;101392.31;;;16.54;74.87
66524;BME280;53350;52.210;5.160;2022-10-16T08:56:56;101389.41;;;16.64;74.20
66524;BME280;53350;52.210;5.160;2022-10-16T08:59:37;101398.00;;;16.66;74.99
66524;BME280;53350;52.210;5.160;2022-10-16T09:02:24;101398.66;;;16.75;74.34
66524;BME280;53350;52.210;5.160;2022-10-16T09:05:02;101394.25;;;16.77;74.30
66524;BME280;53350;52.210;5.160;2022-10-16T09:07:58;101410.44;;;16.86;73.75
66524;BME280;53350;52.210;5.160;2022-10-16T09:10:39;101413.09;;;16.85;73.50
66524;BME280;53350;52.210;5.160;2022-10-16T09:13:27;101418.97;;;16.93;73.94
66524;BME280;53350;52.210;5.160;2022-10-16T09:16:15;101420.41;;;17.03;73.44
66524;BME280;53350;52.210;5.160;2022-10-16T09:19:14;101434.00;;;17.13;72.96
66524;BME280;53350;52.210;5.160;2022-10-16T09:21:57;101443.53;;;17.13;72.82
66524;BME280;53350;52.210;5.160;2022-10-16T09:24:26;101441.03;;;17.10;73.00
66524;BME280;53350;52.210;5.160;2022-10-16T09:26:58;101448.97;;;17.05;72.79
66524;BME280;53350;52.210;5.160;2022-10-16T09:29:28;101449.13;;;17.00;72.54
66524;BME280;53350;52.210;5.160;2022-10-16T09:32:06;101446.47;;;17.02;72.65
66524;BME280;53350;52.210;5.160;2022-10-16T09:35:04;101448.19;;;17.01;72.59
66524;BME280;53350;52.210;5.160;2022-10-16T09:37:47;101443.00;;;17.01;72.46
66524;BME280;53350;52.210;5.160;2022-10-16T09:40:29;101448.09;;;17.06;72.28
66524;BME280;53350;52.210;5.160;2022-10-16T09:43:19;101453.06;;;17.14;71.99
66524;BME280;53350;52.210;5.160;2022-10-16T09:46:08;101452.03;;;17.19;71.97
66524;BME280;53350;52.210;5.160;2022-10-16T09:48:43;101464.84;;;17.26;71.51
66524;BME280;53350;52.210;5.160;2022-10-16T09:51:28;101458.91;;;17.22;71.46
66524;BME280;53350;52.210;5.160;2022-10-16T09:54:17;101454.47;;;17.24;71.52
66524;BME280;53350;52.210;5.160;2022-10-16T09:57:12;101469.13;;;17.28;71.25
66524;BME280;53350;52.210;5.160;2022-10-16T09:59:53;101466.22;;;17.37;70.47
66524;BME280;53350;52.210;5.160;2022-10-16T10:02:29;101471.44;;;17.37;70.81
66524;BME280;53350;52.210;5.160;2022-10-16T10:05:04;101469.41;;;17.47;70.30
66524;BME280;53350;52.210;5.160;2022-10-16T10:07:46;101472.72;;;17.52;69.89
66524;BME280;53350;52.210;5.160;2022-10-16T10:10:22;101450.44;;;17.42;70.39
66524;BME280;53350;52.210;5.160;2022-10-16T10:12:59;101472.38;;;17.63;69.66
66524;BME280;53350;52.210;5.160;2022-10-16T10:15:33;101479.47;;;17.58;70.02
66524;BME280;53350;52.210;5.160;2022-10-16T10:18:01;101482.91;;;17.60;69.35
66524;BME280;53350;52.210;5.160;2022-10-16T10:20:34;101469.97;;;17.57;69.91
66524;BME280;53350;52.210;5.160;2022-10-16T10:23:21;101475.97;;;17.59;69.68
66524;BME280;53350;52.210;5.160;2022-10-16T10:26:16;101473.50;;;17.54;69.96
66524;BME280;53350;52.210;5.160;2022-10-16T10:28:56;101486.28;;;17.62;69.67
66524;BME280;53350;52.210;5.160;2022-10-16T10:31:56;101487.91;;;17.66;69.83
66524;BME280;53350;52.210;5.160;2022-10-16T10:35:06;101497.13;;;17.77;69.71
66524;BME280;53350;52.210;5.160;2022-10-16T10:38:00;101495.13;;;17.85;69.33
66524;BME280;53350;52.210;5.160;2022-10-16T10:40:56;101512.31;;;17.92;68.79
66524;BME280;53350;52.210;5.160;2022-10-16T10:43:47;101512.31;;;17.92;68.58
66524;BME280;53350;52.210;5.160;2022-10-16T10:46:34;101506.09;;;17.96;67.32
66524;BME280;53350;52.210;5.160;2022-10-16T10:49:26;101511.13;;;18.02;67.49
66524;BME280;53350;52.210;5.160;2022-10-16T10:52:34;101514.38;;;18.09;66.95
66524;BME280;53350;52.210;5.160;2022-10-16T10:55:43;101511.81;;;18.07;67.37
66524;BME280;53350;52.210;5.160;2022-10-16T11:01:14;101526.31;;;18.16;66.54
66524;BME280;53350;52.210;5.160;2022-10-16T11:04:12;101522.16;;;18.11;66.30
66524;BME280;53350;52.210;5.160;2022-10-16T11:06:55;101528.38;;;18.06;66.71
66524;BME280;53350;52.210;5.160;2022-10-16T11:09:45;101530.97;;;18.06;66.84
66524;BME280;53350;52.210;5.160;2022-10-16T11:12:29;101531.59;;;18.15;66.40
66524;BME280;53350;52.210;5.160;2022-10-16T11:15:11;101538.31;;;18.20;66.27
66524;BME280;53350;52.210;5.160;2022-10-16T11:18:03;101536.59;;;18.21;65.51
66524;BME280;53350;52.210;5.160;2022-10-16T11:20:43;101536.63;;;18.19;63.92
66524;BME280;53350;52.210;5.160;2022-10-16T11:23:18;101537.53;;;18.18;63.26
66524;BME280;53350;52.210;5.160;2022-10-16T11:25:55;101542.84;;;18.15;63.00
66524;BME280;53350;52.210;5.160;2022-10-16T11:28:27;101542.91;;;18.14;63.42
66524;BME280;53350;52.210;5.160;2022-10-16T11:31:24;101554.03;;;18.19;63.63
66524;BME280;53350;52.210;5.160;2022-10-16T11:34:04;101559.19;;;18.20;62.90
66524;BME280;53350;52.210;5.160;2022-10-16T11:36:42;101561.72;;;18.23;62.72
66524;BME280;53350;52.210;5.160;2022-10-16T11:39:30;101557.13;;;18.30;62.61
66524;BME280;53350;52.210;5.160;2022-10-16T11:42:18;101561.41;;;18.33;62.62
66524;BME280;53350;52.210;5.160;2022-10-16T11:45:19;101559.63;;;18.33;61.57
66524;BME280;53350;52.210;5.160;2022-10-16T11:48:08;101560.63;;;18.31;59.67
66524;BME280;53350;52.210;5.160;2022-10-16T11:50:49;101562.56;;;18.24;59.64
66524;BME280;53350;52.210;5.160;2022-10-16T11:53:37;101556.56;;;18.20;60.15
66524;BME280;53350;52.210;5.160;2022-10-16T11:56:08;101568.66;;;18.23;60.47
66524;BME280;53350;52.210;5.160;2022-10-16T11:58:57;101568.72;;;18.21;60.98
66524;BME280;53350;52.210;5.160;2022-10-16T12:01:40;101564.31;;;18.23;60.65
66524;BME280;53350;52.210;5.160;2022-10-16T12:04:40;101567.06;;;18.19;61.03
66524;BME280;53350;52.210;5.160;2022-10-16T12:07:19;101568.78;;;18.20;60.37
66524;BME280;53350;52.210;5.160;2022-10-16T12:09:55;101567.94;;;18.19;59.46
66524;BME280;53350;52.210;5.160;2022-10-16T12:12:37;101576.66;;;18.18;59.37
66524;BME280;53350;52.210;5.160;2022-10-16T12:15:27;101573.88;;;18.23;58.06
66524;BME280;53350;52.210;5.160;2022-10-16T12:17:54;101577.22;;;18.28;57.60
66524;BME280;53350;52.210;5.160;2022-10-16T12:20:40;101582.53;;;18.25;57.85
66524;BME280;53350;52.210;5.160;2022-10-16T12:23:20;101583.25;;;18.29;57.32
66524;BME280;53350;52.210;5.160;2022-10-16T12:25:54;101589.31;;;18.29;57.57
66524;BME280;53350;52.210;5.160;2022-10-16T12:28:31;101586.59;;;18.34;58.07
66524;BME280;53350;52.210;5.160;2022-10-16T12:31:07;101589.88;;;18.39;58.26
66524;BME280;53350;52.210;5.160;2022-10-16T12:33:58;101594.19;;;18.40;58.38
66524;BME280;53350;52.210;5.160;2022-10-16T12:36:35;101594.03;;;18.45;57.41
66524;BME280;53350;52.210;5.160;2022-10-16T12:39:21;101591.16;;;18.52;57.19
66524;BME280;53350;52.210;5.160;2022-10-16T12:42:33;101599.00;;;18.52;57.94
66524;BME280;53350;52.210;5.160;2022-10-16T12:45:30;101591.94;;;18.56;58.38
66524;BME280;53350;52.210;5.160;2022-10-16T12:48:17;101585.81;;;18.57;58.02
66524;BME280;53350;52.210;5.160;2022-10-16T12:50:50;101587.56;;;18.56;58.50
66524;BME280;53350;52.210;5.160;2022-10-16T12:53:20;101596.31;;;18.55;58.63
66524;BME280;53350;52.210;5.160;2022-10-16T12:56:09;101594.53;;;18.56;58.28
66524;BME280;53350;52.210;5.160;2022-10-16T12:59:04;101589.16;;;18.60;58.09
66524;BME280;53350;52.210;5.160;2022-10-16T13:01:50;101597.88;;;18.61;57.67
66524;BME280;53350;52.210;5.160;2022-10-16T13:04:40;101598.03;;;18.55;58.74
66524;BME280;53350;52.210;5.160;2022-10-16T13:07:26;101602.53;;;18.51;58.66
66524;BME280;53350;52.210;5.160;2022-10-16T13:10:19;101598.22;;;18.50;58.56
66524;BME280;53350;52.210;5.160;2022-10-16T13:13:13;101601.66;;;18.51;58.76
66524;BME280;53350;52.210;5.160;2022-10-16T13:16:10;101600.66;;;18.55;58.57
66524;BME280;53350;52.210;5.160;2022-10-16T13:19:08;101606.75;;;18.55;58.72
66524;BME280;53350;52.210;5.160;2022-10-16T13:22:05;101610.97;;;18.58;59.24
66524;BME280;53350;52.210;5.160;2022-10-16T13:24:55;101610.94;;;18.59;59.60
66524;BME280;53350;52.210;5.160;2022-10-16T13:27:39;101613.53;;;18.61;58.80
66524;BME280;53350;52.210;5.160;2022-10-16T13:30:13;101608.97;;;18.66;59.26
66524;BME280;53350;52.210;5.160;2022-10-16T13:32:50;101618.47;;;18.69;58.81
66524;BME280;53350;52.210;5.160;2022-10-16T13:35:24;101636.75;;;18.69;59.22
66524;BME280;53350;52.210;5.160;2022-10-16T13:38:11;101628.00;;;18.70;58.31